createdAt,value
2018-10-09T00:00:10.440Z,8.27
2018-10-09T00:02:39.396Z,8.63
2018-10-09T00:05:08.084Z,8.73
2018-10-09T00:07:36.752Z,6.03
2018-10-09T00:10:05.415Z,7.90
2018-10-09T00:12:34.384Z,7.87
2018-10-09T00:15:02.998Z,5.90
2018-10-09T00:17:31.842Z,6.70
2018-10-09T00:20:00.379Z,7.93
2018-10-09T00:22:29.154Z,6.70
2018-10-09T00:24:57.787Z,9.77
2018-10-09T00:27:26.686Z,7.33
2018-10-09T00:29:55.275Z,6.70
2018-10-09T00:32:23.808Z,8.23
2018-10-09T00:34:52.731Z,8.60
2018-10-09T00:37:21.299Z,9.30
2018-10-09T00:39:50.575Z,7.97
2018-10-09T00:42:19.419Z,6.83
2018-10-09T00:44:48.659Z,8.27
2018-10-09T00:47:17.271Z,6.63
2018-10-09T00:49:45.908Z,7.77
2018-10-09T00:52:14.693Z,8.90
2018-10-09T00:54:43.264Z,6.23
2018-10-09T00:57:12.039Z,8.53
2018-10-09T00:59:40.987Z,9.20
2018-10-09T01:02:09.667Z,6.70
2018-10-09T01:04:38.530Z,8.23
2018-10-09T01:07:07.667Z,8.20
2018-10-09T01:09:36.619Z,7.27
2018-10-09T01:12:05.481Z,7.33
2018-10-09T01:14:34.481Z,6.60
2018-10-09T01:17:03.428Z,6.40
2018-10-09T01:19:32.029Z,9.73
2018-10-09T01:22:00.663Z,6.97
2018-10-09T01:24:29.521Z,7.90
2018-10-09T01:26:58.139Z,9.43
2018-10-09T01:29:26.798Z,8.93
2018-10-09T01:31:55.341Z,7.43
2018-10-09T01:34:24.285Z,9.03
2018-10-09T01:36:52.827Z,6.13
2018-10-09T01:39:21.376Z,7.43
2018-10-09T01:41:49.986Z,6.77
2018-10-09T01:44:18.770Z,7.70
2018-10-09T01:46:47.556Z,7.87
2018-10-09T01:49:16.134Z,8.10
2018-10-09T01:51:45.003Z,10.70
2018-10-09T01:54:13.935Z,7.37
2018-10-09T01:56:43.288Z,7.00
2018-10-09T01:59:11.883Z,7.43
2018-10-09T02:01:41.266Z,9.13
2018-10-09T02:04:09.942Z,6.73
2018-10-09T02:06:39.293Z,8.43
2018-10-09T02:09:09.823Z,9.77
2018-10-09T02:11:39.162Z,12.03
2018-10-09T02:14:08.627Z,9.47
2018-10-09T02:16:37.266Z,8.83
2018-10-09T02:19:06.391Z,9.47
2018-10-09T02:21:35.268Z,10.60
2018-10-09T02:24:04.471Z,9.80
2018-10-09T02:26:33.020Z,9.60
2018-10-09T02:29:01.895Z,9.47
2018-10-09T02:31:30.517Z,9.07
2018-10-09T02:33:59.020Z,9.50
2018-10-09T02:36:27.578Z,11.93
2018-10-09T02:38:56.121Z,10.07
2018-10-09T02:41:24.700Z,10.20
2018-10-09T02:43:53.368Z,10.87
2018-10-09T02:46:22.010Z,11.83
2018-10-09T02:48:50.840Z,9.50
2018-10-09T02:51:19.385Z,10.67
2018-10-09T02:53:47.890Z,10.37
2018-10-09T02:56:16.703Z,11.90
2018-10-09T02:58:45.262Z,9.83
2018-10-09T03:01:13.779Z,10.37
2018-10-09T03:03:42.316Z,10.57
2018-10-09T03:06:11.356Z,9.10
2018-10-09T03:08:40.602Z,9.87
2018-10-09T03:11:09.545Z,9.77
2018-10-09T03:13:38.442Z,12.40
2018-10-09T03:16:07.133Z,10.53
2018-10-09T03:18:36.055Z,10.23
2018-10-09T03:21:04.781Z,11.83
2018-10-09T03:23:33.432Z,11.23
2018-10-09T03:26:02.109Z,11.00
2018-10-09T03:28:30.850Z,9.47
2018-10-09T03:30:59.489Z,9.97
2018-10-09T03:33:28.541Z,12.50
2018-10-09T03:35:57.082Z,12.50
2018-10-09T03:38:25.773Z,9.10
2018-10-09T03:40:54.344Z,9.97
2018-10-09T03:43:22.931Z,10.93
2018-10-09T03:45:57.213Z,10.67
2018-10-09T03:48:25.938Z,12.67
2018-10-09T03:50:54.945Z,12.27
2018-10-09T03:53:23.508Z,11.87
2018-10-09T03:55:52.095Z,11.57
2018-10-09T03:58:20.793Z,11.47
2018-10-09T04:00:49.706Z,9.67
2018-10-09T04:03:18.513Z,10.13
2018-10-09T04:05:47.012Z,9.53
2018-10-09T04:08:15.673Z,10.27
2018-10-09T04:10:44.171Z,10.13
2018-10-09T04:13:12.802Z,11.67
2018-10-09T04:15:41.391Z,11.50
2018-10-09T04:18:10.261Z,13.00
2018-10-09T04:20:39.091Z,11.67
2018-10-09T04:23:07.764Z,10.80
2018-10-09T04:25:36.599Z,16.23
2018-10-09T04:28:05.200Z,17.13
2018-10-09T04:30:34.318Z,12.63
2018-10-09T04:33:02.914Z,11.37
2018-10-09T04:35:31.622Z,15.13
2018-10-09T04:38:00.391Z,12.27
2018-10-09T04:40:35.593Z,12.40
2018-10-09T04:43:04.346Z,11.20
2018-10-09T04:45:33.308Z,9.60
2018-10-09T04:48:02.037Z,10.20
2018-10-09T04:50:31.096Z,9.63
2018-10-09T04:52:59.617Z,9.80
2018-10-09T04:55:28.255Z,11.27
2018-10-09T04:57:56.886Z,11.20
2018-10-09T05:00:25.445Z,11.67
2018-10-09T05:02:53.943Z,12.07
2018-10-09T05:05:22.470Z,13.03
2018-10-09T05:07:51.521Z,15.40
2018-10-09T05:10:20.550Z,11.60
2018-10-09T05:12:49.176Z,10.73
2018-10-09T05:15:17.777Z,10.83
2018-10-09T05:17:46.468Z,13.37
2018-10-09T05:20:14.997Z,14.13
2018-10-09T05:22:43.588Z,11.20
2018-10-09T05:25:12.300Z,13.43
2018-10-09T05:27:40.883Z,12.20
2018-10-09T05:30:09.618Z,11.13
2018-10-09T05:32:39.102Z,13.30
2018-10-09T05:35:07.758Z,13.07
2018-10-09T05:37:36.625Z,12.00
2018-10-09T05:40:05.551Z,12.30
2018-10-09T05:42:34.426Z,13.60
2018-10-09T05:45:03.158Z,12.40
2018-10-09T05:47:31.624Z,15.67
2018-10-09T05:50:00.189Z,15.13
2018-10-09T05:52:28.746Z,14.37
2018-10-09T05:54:57.387Z,13.93
2018-10-09T05:57:25.979Z,13.27
2018-10-09T05:59:54.459Z,14.50
2018-10-09T06:02:23.290Z,13.27
2018-10-09T06:04:51.813Z,13.20
2018-10-09T06:07:20.414Z,13.73
2018-10-09T06:09:48.911Z,16.53
2018-10-09T06:12:17.489Z,16.03
2018-10-09T06:14:46.107Z,13.67
2018-10-09T06:17:14.611Z,14.90
2018-10-09T06:19:43.124Z,12.63
2018-10-09T06:22:11.682Z,13.67
2018-10-09T06:24:41.046Z,15.47
2018-10-09T06:27:09.834Z,17.53
2018-10-09T06:29:38.451Z,15.50
2018-10-09T06:32:07.011Z,13.10
2018-10-09T06:34:35.635Z,14.20
2018-10-09T06:37:04.517Z,13.87
2018-10-09T06:39:33.256Z,13.40
2018-10-09T06:42:01.750Z,13.77
2018-10-09T06:44:30.285Z,11.87
2018-10-09T06:46:58.831Z,14.00
2018-10-09T06:49:27.354Z,14.30
2018-10-09T06:51:55.913Z,11.77
2018-10-09T06:54:24.428Z,11.43
2018-10-09T06:56:52.987Z,11.77
2018-10-09T06:59:21.503Z,12.70
2018-10-09T07:01:50.054Z,12.37
2018-10-09T07:04:18.844Z,11.27
2018-10-09T07:06:48.052Z,9.13
2018-10-09T07:09:16.580Z,10.53
2018-10-09T07:11:45.208Z,9.83
2018-10-09T07:14:14.049Z,12.07
2018-10-09T07:16:42.748Z,10.80
2018-10-09T07:19:11.229Z,10.43
2018-10-09T07:21:40.110Z,12.10
2018-10-09T07:24:08.947Z,11.07
2018-10-09T07:26:38.101Z,9.53
2018-10-09T07:29:06.693Z,11.43
2018-10-09T07:31:35.244Z,12.50
2018-10-09T07:34:03.780Z,14.80
2018-10-09T07:36:32.756Z,15.13
2018-10-09T07:39:01.402Z,17.33
2018-10-09T07:41:30.053Z,14.57
2018-10-09T07:43:58.639Z,14.30
2018-10-09T07:46:29.532Z,16.53
2018-10-09T07:49:03.868Z,15.27
2018-10-09T07:51:32.833Z,16.10
2018-10-09T07:54:01.327Z,23.13
2018-10-09T07:56:29.964Z,20.27
2018-10-09T07:58:58.530Z,16.93
2018-10-09T08:01:27.212Z,25.97
2018-10-09T08:03:55.979Z,27.87
2018-10-09T08:06:24.626Z,31.00
2018-10-09T08:08:53.177Z,29.40
2018-10-09T08:11:21.690Z,35.47
2018-10-09T08:13:50.527Z,31.40
2018-10-09T08:16:19.208Z,34.53
2018-10-09T08:18:48.164Z,28.87
2018-10-09T08:21:16.860Z,27.33
2018-10-09T08:23:45.382Z,30.43
2018-10-09T08:26:14.100Z,25.97
2018-10-09T08:28:42.941Z,23.57
2018-10-09T08:31:11.554Z,23.83
2018-10-09T08:33:40.702Z,21.17
2018-10-09T08:36:09.337Z,21.47
2018-10-09T08:38:38.169Z,21.60
2018-10-09T08:41:06.816Z,22.77
2018-10-09T08:43:35.403Z,18.53
2018-10-09T08:46:04.290Z,23.33
2018-10-09T08:48:33.385Z,21.40
2018-10-09T08:51:02.055Z,25.23
2018-10-09T08:53:30.748Z,25.40
2018-10-09T08:55:59.368Z,23.77
2018-10-09T08:58:27.984Z,28.47
2018-10-09T09:00:56.726Z,27.63
2018-10-09T09:03:25.348Z,30.33
2018-10-09T09:05:54.059Z,28.57
2018-10-09T09:08:22.657Z,24.37
2018-10-09T09:10:51.262Z,26.53
2018-10-09T09:13:19.894Z,27.83
2018-10-09T09:15:48.606Z,24.40
2018-10-09T09:18:17.168Z,22.00
2018-10-09T09:20:45.884Z,22.83
2018-10-09T09:23:14.440Z,23.03
2018-10-09T09:25:43.016Z,21.70
2018-10-09T09:28:11.645Z,21.50
2018-10-09T09:30:40.808Z,21.80
2018-10-09T09:33:09.696Z,20.73
2018-10-09T09:35:39.321Z,22.60
2018-10-09T09:38:07.908Z,20.37
2018-10-09T09:40:36.779Z,21.90
2018-10-09T09:43:05.477Z,24.60
2018-10-09T09:45:34.131Z,24.87
2018-10-09T09:48:03.010Z,25.47
2018-10-09T09:50:31.624Z,22.73
2018-10-09T09:53:00.157Z,22.20
2018-10-09T09:55:28.935Z,25.27
2018-10-09T09:57:57.574Z,22.40
2018-10-09T10:00:31.674Z,24.23
2018-10-09T10:03:00.365Z,22.10
2018-10-09T10:05:29.024Z,24.63
2018-10-09T10:07:57.677Z,22.00
2018-10-09T10:10:26.332Z,23.57
2018-10-09T10:12:55.164Z,22.50
2018-10-09T10:15:24.363Z,23.83
2018-10-09T10:17:52.876Z,24.60
2018-10-09T10:20:21.533Z,25.73
2018-10-09T10:22:50.057Z,25.93
2018-10-09T10:25:18.609Z,25.10
2018-10-09T10:27:47.424Z,24.73
2018-10-09T10:30:16.363Z,26.77
2018-10-09T10:32:51.485Z,27.87
2018-10-09T10:35:20.045Z,22.87
2018-10-09T10:37:48.569Z,23.60
2018-10-09T10:40:17.260Z,28.37
2018-10-09T10:42:45.960Z,25.13
2018-10-09T10:45:14.615Z,21.27
2018-10-09T10:47:43.348Z,25.43
2018-10-09T10:50:11.929Z,23.87
2018-10-09T10:52:40.986Z,26.07
2018-10-09T10:55:09.687Z,28.67
2018-10-09T10:57:38.897Z,27.73
2018-10-09T11:00:07.711Z,31.03
2018-10-09T11:02:36.448Z,26.30
2018-10-09T11:05:05.466Z,26.83
2018-10-09T11:07:34.111Z,25.03
2018-10-09T11:10:03.160Z,23.87
2018-10-09T11:12:31.811Z,23.33
2018-10-09T11:15:00.364Z,26.40
2018-10-09T11:17:29.051Z,24.33
2018-10-09T11:19:57.710Z,24.43
2018-10-09T11:22:26.259Z,25.20
2018-10-09T11:24:54.901Z,27.90
2018-10-09T11:27:23.450Z,28.03
2018-10-09T11:29:52.271Z,22.53
2018-10-09T11:32:21.181Z,25.23
2018-10-09T11:34:49.687Z,23.23
2018-10-09T11:37:18.209Z,22.57
2018-10-09T11:39:47.007Z,21.60
2018-10-09T11:42:15.760Z,22.60
2018-10-09T11:44:44.310Z,22.83
2018-10-09T11:47:13.078Z,22.60
2018-10-09T11:49:41.668Z,26.53
2018-10-09T11:52:10.165Z,21.87
2018-10-09T11:54:39.850Z,23.20
2018-10-09T11:57:08.444Z,22.13
2018-10-09T11:59:37.008Z,19.30
2018-10-09T12:02:06.381Z,22.07
2018-10-09T12:04:35.100Z,22.40
2018-10-09T12:07:03.682Z,21.60
2018-10-09T12:09:32.577Z,20.23
2018-10-09T12:12:01.144Z,22.07
2018-10-09T12:14:29.739Z,22.27
2018-10-09T12:16:58.234Z,19.43
2018-10-09T12:19:26.870Z,19.67
2018-10-09T12:21:55.502Z,20.43
2018-10-09T12:24:24.014Z,17.93
2018-10-09T12:26:52.632Z,17.87
2018-10-09T12:29:22.087Z,17.47
2018-10-09T12:31:50.625Z,16.40
2018-10-09T12:34:19.200Z,16.47
2018-10-09T12:36:47.739Z,17.80
2018-10-09T12:39:16.262Z,18.63
2018-10-09T12:41:44.781Z,15.97
2018-10-09T12:44:13.390Z,15.50
2018-10-09T12:46:42.085Z,14.03
2018-10-09T12:49:10.640Z,15.37
2018-10-09T12:51:39.848Z,13.60
2018-10-09T12:54:08.400Z,14.73
2018-10-09T12:56:37.052Z,14.07
2018-10-09T12:59:06.156Z,15.30
2018-10-09T13:01:34.645Z,12.40
2018-10-09T13:04:03.347Z,13.97
2018-10-09T13:06:32.071Z,13.53
2018-10-09T13:09:00.862Z,14.03
2018-10-09T13:11:29.381Z,15.33
2018-10-09T13:13:58.065Z,14.27
2018-10-09T13:16:26.618Z,13.20
2018-10-09T13:18:55.110Z,11.80
2018-10-09T13:21:23.785Z,12.43
2018-10-09T13:23:52.223Z,12.27
2018-10-09T13:26:21.361Z,13.20
2018-10-09T13:28:49.900Z,13.50
2018-10-09T13:31:18.465Z,12.63
2018-10-09T13:33:46.996Z,13.50
2018-10-09T13:36:15.973Z,14.10
2018-10-09T13:38:44.445Z,13.37
2018-10-09T13:41:13.293Z,13.03
2018-10-09T13:43:41.937Z,18.67
2018-10-09T13:46:10.775Z,12.80
2018-10-09T13:48:39.853Z,13.03
2018-10-09T13:51:08.428Z,13.13
2018-10-09T13:53:37.242Z,12.47
2018-10-09T13:56:05.979Z,14.57
2018-10-09T13:58:34.492Z,13.60
2018-10-09T14:01:03.028Z,13.57
2018-10-09T14:03:31.956Z,14.27
2018-10-09T14:06:00.667Z,13.87
2018-10-09T14:08:29.162Z,13.87
2018-10-09T14:10:57.758Z,14.77
2018-10-09T14:13:26.396Z,14.67
2018-10-09T14:15:56.730Z,18.87
2018-10-09T14:18:25.503Z,16.07
2018-10-09T14:20:54.031Z,14.20
2018-10-09T14:23:22.500Z,14.13
2018-10-09T14:25:51.073Z,13.03
2018-10-09T14:28:19.843Z,14.83
2018-10-09T14:30:48.408Z,14.60
2018-10-09T14:33:17.069Z,11.57
2018-10-09T14:35:45.588Z,14.57
2018-10-09T14:38:14.106Z,12.60
2018-10-09T14:40:42.706Z,13.00
2018-10-09T14:43:11.232Z,13.07
2018-10-09T14:45:39.990Z,12.77
2018-10-09T14:48:08.517Z,13.40
2018-10-09T14:50:38.316Z,14.07
2018-10-09T14:53:06.831Z,13.53
2018-10-09T14:55:35.667Z,14.27
2018-10-09T14:58:04.136Z,14.50
2018-10-09T15:00:32.696Z,14.83
2018-10-09T15:03:01.214Z,14.57
2018-10-09T15:05:30.025Z,16.17
2018-10-09T15:07:58.802Z,14.77
2018-10-09T15:10:27.336Z,12.90
2018-10-09T15:12:56.080Z,13.73
2018-10-09T15:15:24.742Z,14.33
2018-10-09T15:17:53.222Z,14.00
2018-10-09T15:20:21.744Z,15.57
2018-10-09T15:22:50.648Z,14.57
2018-10-09T15:25:19.177Z,13.63
2018-10-09T15:27:47.650Z,13.90
2018-10-09T15:30:16.256Z,11.97
2018-10-09T15:32:44.888Z,11.90
2018-10-09T15:35:13.486Z,19.23
2018-10-09T15:37:42.040Z,12.33
2018-10-09T15:40:10.903Z,16.83
2018-10-09T15:42:39.464Z,17.33
2018-10-09T15:45:08.045Z,20.93
2018-10-09T15:47:36.824Z,34.83
2018-10-09T15:50:05.396Z,15.23
2018-10-09T15:52:34.027Z,13.27
2018-10-09T15:55:02.523Z,13.77
2018-10-09T15:57:31.032Z,16.20
2018-10-09T15:59:59.589Z,13.67
2018-10-09T16:02:28.480Z,13.20
2018-10-09T16:04:57.259Z,14.73
2018-10-09T16:07:25.768Z,13.60
2018-10-09T16:09:54.483Z,19.83
2018-10-09T16:12:24.178Z,15.47
2018-10-09T16:14:53.891Z,15.40
2018-10-09T16:17:22.431Z,13.53
2018-10-09T16:19:51.518Z,11.63
2018-10-09T16:22:21.949Z,13.63
2018-10-09T16:24:50.649Z,12.30
2018-10-09T16:27:19.785Z,11.87
2018-10-09T16:29:48.722Z,12.57
2018-10-09T16:32:17.319Z,12.80
2018-10-09T16:34:45.793Z,13.67
2018-10-09T16:37:14.282Z,12.00
2018-10-09T16:39:42.763Z,14.73
2018-10-09T16:42:11.440Z,12.93
2018-10-09T16:44:43.377Z,14.13
2018-10-09T16:47:14.877Z,15.63
2018-10-09T16:49:47.481Z,13.23
2018-10-09T16:52:16.250Z,12.57
2018-10-09T16:54:44.954Z,78.93
2018-10-09T16:57:13.656Z,27.93
2018-10-09T16:59:43.065Z,14.87
2018-10-09T17:02:11.950Z,13.47
2018-10-09T17:04:43.365Z,14.47
2018-10-09T17:07:12.159Z,14.30
2018-10-09T17:09:43.145Z,14.00
2018-10-09T17:12:12.232Z,15.03
2018-10-09T17:14:42.856Z,13.93
2018-10-09T17:17:11.353Z,14.30
2018-10-09T17:19:40.952Z,14.93
2018-10-09T17:22:10.812Z,16.23
2018-10-09T17:24:40.585Z,15.10
2018-10-09T17:27:09.148Z,14.53
2018-10-09T17:29:38.460Z,15.70
2018-10-09T17:32:08.236Z,15.93
2018-10-09T17:34:37.144Z,15.43
2018-10-09T17:37:06.534Z,15.87
2018-10-09T17:39:36.994Z,17.47
2018-10-09T17:42:07.879Z,19.17
2018-10-09T17:44:39.338Z,16.53
2018-10-09T17:47:12.013Z,17.43
2018-10-09T17:49:44.301Z,21.70
2018-10-09T17:52:15.027Z,24.20
2018-10-09T17:54:46.193Z,22.60
2018-10-09T17:57:17.548Z,23.77
2018-10-09T17:59:48.145Z,18.73
2018-10-09T18:02:16.792Z,18.47
2018-10-09T18:04:45.355Z,20.50
2018-10-09T18:07:13.928Z,22.40
2018-10-09T18:09:42.638Z,20.20
2018-10-09T18:12:11.666Z,17.70
2018-10-09T18:14:40.552Z,22.30
2018-10-09T18:17:09.133Z,19.43
2018-10-09T18:19:37.710Z,19.53
2018-10-09T18:22:06.292Z,21.03
2018-10-09T18:24:35.937Z,18.63
2018-10-09T18:27:04.644Z,19.83
2018-10-09T18:29:33.209Z,22.70
2018-10-09T18:32:01.997Z,22.03
2018-10-09T18:34:30.683Z,22.97
2018-10-09T18:37:00.644Z,20.27
2018-10-09T18:39:29.300Z,21.70
2018-10-09T18:41:58.197Z,21.53
2018-10-09T18:44:26.709Z,18.60
2018-10-09T18:46:55.636Z,19.20
2018-10-09T18:49:24.204Z,16.77
2018-10-09T18:51:52.995Z,19.90
2018-10-09T18:54:22.457Z,17.03
2018-10-09T18:56:51.069Z,17.53
2018-10-09T18:59:20.626Z,18.13
2018-10-09T19:01:49.891Z,18.33
2018-10-09T19:04:18.889Z,19.20
2018-10-09T19:06:47.463Z,18.17
2018-10-09T19:09:16.099Z,19.33
2018-10-09T19:11:44.928Z,21.20
2018-10-09T19:14:13.577Z,17.73
2018-10-09T19:16:42.105Z,20.67
2018-10-09T19:19:11.326Z,19.37
2018-10-09T19:21:40.705Z,19.43
2018-10-09T19:24:10.008Z,23.00
2018-10-09T19:26:40.099Z,22.20
2018-10-09T19:29:09.387Z,24.60
2018-10-09T19:31:38.594Z,22.10
2018-10-09T19:34:07.887Z,25.23
2018-10-09T19:36:36.480Z,23.73
2018-10-09T19:39:08.194Z,24.20
2018-10-09T19:41:38.798Z,22.47
2018-10-09T19:44:07.573Z,24.93
2018-10-09T19:46:36.713Z,23.10
2018-10-09T19:49:05.403Z,24.73
2018-10-09T19:51:34.043Z,24.50
2018-10-09T19:54:02.850Z,25.60
2018-10-09T19:56:31.749Z,25.00
2018-10-09T19:59:00.982Z,26.33
2018-10-09T20:01:29.643Z,25.70
2018-10-09T20:03:58.194Z,27.67
2018-10-09T20:06:27.429Z,28.93
2018-10-09T20:08:56.049Z,29.20
2018-10-09T20:11:24.705Z,29.60
2018-10-09T20:13:53.307Z,27.03
2018-10-09T20:16:21.886Z,29.27
2018-10-09T20:18:50.654Z,28.47
2018-10-09T20:21:19.197Z,27.57
2018-10-09T20:23:47.751Z,31.03
2018-10-09T20:26:16.374Z,27.53
2018-10-09T20:28:44.937Z,27.97
2018-10-09T20:31:13.466Z,28.27
2018-10-09T20:33:42.076Z,27.90
2018-10-09T20:36:10.654Z,30.80
2018-10-09T20:38:39.719Z,25.17
2018-10-09T20:41:08.500Z,30.40
2018-10-09T20:43:37.048Z,31.80
2018-10-09T20:46:05.862Z,32.00
2018-10-09T20:48:34.336Z,30.17
2018-10-09T20:51:03.050Z,29.30
2018-10-09T20:53:31.856Z,27.23
2018-10-09T20:56:00.304Z,29.77
2018-10-09T20:58:28.776Z,27.60
2018-10-09T21:00:57.252Z,27.50
2018-10-09T21:03:26.095Z,27.90
2018-10-09T21:05:54.647Z,31.07
2018-10-09T21:08:23.395Z,32.83
2018-10-09T21:10:51.961Z,27.30
2018-10-09T21:13:20.483Z,26.90
2018-10-09T21:15:48.989Z,26.00
2018-10-09T21:18:17.472Z,25.70
2018-10-09T21:20:45.966Z,31.00
2018-10-09T21:23:14.519Z,30.37
2018-10-09T21:25:43.115Z,31.17
2018-10-09T21:28:11.618Z,31.03
2018-10-09T21:30:40.422Z,31.43
2018-10-09T21:33:08.923Z,29.90
2018-10-09T21:35:37.883Z,31.20
2018-10-09T21:38:06.410Z,31.63
2018-10-09T21:40:35.741Z,33.87
2018-10-09T21:43:04.418Z,30.87
2018-10-09T21:45:32.941Z,29.50
2018-10-09T21:48:02.192Z,32.03
2018-10-09T21:50:31.095Z,32.67
2018-10-09T21:52:59.978Z,32.07
2018-10-09T21:55:28.972Z,33.93
2018-10-09T21:57:58.221Z,32.70
2018-10-09T22:00:26.738Z,35.63
2018-10-09T22:02:55.557Z,35.77
2018-10-09T22:05:24.255Z,39.87
2018-10-09T22:07:52.940Z,34.20
2018-10-09T22:10:21.426Z,36.03
2018-10-09T22:12:50.125Z,39.00
2018-10-09T22:15:18.889Z,38.27
2018-10-09T22:17:47.393Z,39.00
2018-10-09T22:20:15.950Z,38.73
2018-10-09T22:22:44.488Z,37.60
2018-10-09T22:25:13.226Z,34.73
2018-10-09T22:27:42.071Z,36.73
2018-10-09T22:30:10.665Z,31.10
2018-10-09T22:32:40.221Z,38.10
2018-10-09T22:35:08.926Z,38.40
2018-10-09T22:37:37.536Z,37.07
2018-10-09T22:40:06.184Z,39.60
2018-10-09T22:42:34.698Z,35.67
2018-10-09T22:45:03.281Z,36.87
2018-10-09T22:47:32.041Z,36.40
2018-10-09T22:50:00.631Z,40.37
2018-10-09T22:52:29.177Z,38.33
2018-10-09T22:54:57.735Z,39.93
2018-10-09T22:57:26.240Z,39.43
2018-10-09T22:59:54.796Z,40.30
2018-10-09T23:02:23.255Z,39.70
2018-10-09T23:04:51.852Z,39.20
2018-10-09T23:07:21.115Z,36.93
2018-10-09T23:09:49.710Z,36.97
2018-10-09T23:12:18.371Z,37.87
2018-10-09T23:14:47.233Z,35.60
2018-10-09T23:17:15.760Z,35.77
2018-10-09T23:19:44.300Z,35.80
2018-10-09T23:22:12.831Z,37.33
2018-10-09T23:24:41.808Z,39.73
2018-10-09T23:27:10.294Z,39.17
2018-10-09T23:29:39.102Z,37.97
2018-10-09T23:32:07.691Z,39.87
2018-10-09T23:34:36.247Z,34.53
2018-10-09T23:37:05.097Z,38.73
2018-10-09T23:39:33.779Z,38.57
2018-10-09T23:42:02.315Z,39.27
2018-10-09T23:44:31.080Z,43.10
2018-10-09T23:46:59.666Z,42.67
2018-10-09T23:49:28.184Z,43.67
2018-10-09T23:51:56.701Z,41.93
2018-10-09T23:54:25.268Z,39.37
2018-10-09T23:56:53.787Z,41.07
2018-10-09T23:59:22.280Z,46.83
